sensor_id;sensor_type;location;lat;lon;timestamp;pressure;altitude;pressure_sealevel;temperature;humidity
6224;BME280;3145;42.726;23.342;2023-05-03T00:01:40;72705.94;;;-142.70;nan
6224;BME280;3145;42.726;23.342;2023-05-03T00:04:08;72693.84;;;-142.70;nan
6224;BME280;3145;42.726;23.342;2023-05-03T00:06:35;72695.88;;;-142.70;nan
6224;BME280;3145;42.726;23.342;2023-05-03T00:09:01;72697.88;;;-142.70;nan
6224;BME280;3145;42.726;23.342;2023-05-03T00:11:28;72697.88;;;-142.70;nan
6224;BME280;3145;42.726;23.342;2023-05-03T00:13:55;72695.88;;;-142.70;nan
6224;BME280;3145;42.726;23.342;2023-05-03T00:16:22;72701.91;;;-142.70;nan
6224;BME280;3145;42.726;23.342;2023-05-03T00:18:50;72707.97;;;-142.70;nan
6224;BME280;3145;42.726;23.342;2023-05-03T00:21:16;72718.03;;;-142.70;nan
6224;BME280;3145;42.726;23.342;2023-05-03T00:23:43;72718.03;;;-142.70;nan
6224;BME280;3145;42.726;23.342;2023-05-03T00:26:10;72714.00;;;-142.70;nan
6224;BME280;3145;42.726;23.342;2023-05-03T00:28:37;72728.09;;;-142.70;nan
6224;BME280;3145;42.726;23.342;2023-05-03T00:31:07;72730.13;;;-142.70;nan
6224;BME280;3145;42.726;23.342;2023-05-03T00:33:34;72726.09;;;-142.70;nan
6224;BME280;3145;42.726;23.342;2023-05-03T00:36:07;72714.00;;;-142.70;nan
6224;BME280;3145;42.726;23.342;2023-05-03T00:38:34;72740.19;;;-142.70;nan
6224;BME280;3145;42.726;23.342;2023-05-03T00:41:01;72738.19;;;-142.70;nan
6224;BME280;3145;42.726;23.342;2023-05-03T00:43:29;72728.09;;;-142.70;nan
6224;BME280;3145;42.726;23.342;2023-05-03T00:45:57;72738.19;;;-142.70;nan
6224;BME280;3145;42.726;23.342;2023-05-03T00:48:25;72738.19;;;-142.70;nan
6224;BME280;3145;42.726;23.342;2023-05-03T00:50:52;72742.22;;;-142.70;nan
6224;BME280;3145;42.726;23.342;2023-05-03T00:53:21;72746.25;;;-142.70;nan
6224;BME280;3145;42.726;23.342;2023-05-03T00:55:51;72754.28;;;-142.70;nan
6224;BME280;3145;42.726;23.342;2023-05-03T00:58:19;72748.25;;;-142.70;nan
6224;BME280;3145;42.726;23.342;2023-05-03T01:00:46;72752.28;;;-142.70;nan
6224;BME280;3145;42.726;23.342;2023-05-03T01:03:13;72746.25;;;-142.70;nan
6224;BME280;3145;42.726;23.342;2023-05-03T01:05:47;72754.28;;;-142.70;nan
6224;BME280;3145;42.726;23.342;2023-05-03T01:08:21;72770.41;;;-142.70;nan
6224;BME280;3145;42.726;23.342;2023-05-03T01:10:57;72770.41;;;-142.70;nan
6224;BME280;3145;42.726;23.342;2023-05-03T01:13:31;72754.28;;;-142.70;nan
6224;BME280;3145;42.726;23.342;2023-05-03T01:16:11;72768.41;;;-142.70;nan
6224;BME280;3145;42.726;23.342;2023-05-03T01:18:41;72766.38;;;-142.70;nan
6224;BME280;3145;42.726;23.342;2023-05-03T01:21:14;72766.38;;;-142.70;nan
6224;BME280;3145;42.726;23.342;2023-05-03T01:23:45;72738.19;;;-142.70;nan
6224;BME280;3145;42.726;23.342;2023-05-03T01:26:21;72750.28;;;-142.70;nan
6224;BME280;3145;42.726;23.342;2023-05-03T01:28:48;72748.25;;;-142.70;nan
6224;BME280;3145;42.726;23.342;2023-05-03T01:31:20;72748.25;;;-142.70;nan
6224;BME280;3145;42.726;23.342;2023-05-03T01:33:54;72754.28;;;-142.70;nan
6224;BME280;3145;42.726;23.342;2023-05-03T01:36:27;72756.31;;;-142.70;nan
6224;BME280;3145;42.726;23.342;2023-05-03T01:38:57;72758.31;;;-142.70;nan
6224;BME280;3145;42.726;23.342;2023-05-03T01:41:26;72760.34;;;-142.70;nan
6224;BME280;3145;42.726;23.342;2023-05-03T01:43:55;72760.34;;;-142.70;nan
6224;BME280;3145;42.726;23.342;2023-05-03T01:46:22;72762.34;;;-142.70;nan
6224;BME280;3145;42.726;23.342;2023-05-03T01:48:49;72760.34;;;-142.70;nan
6224;BME280;3145;42.726;23.342;2023-05-03T01:51:16;72756.31;;;-142.70;nan
6224;BME280;3145;42.726;23.342;2023-05-03T01:53:42;72754.28;;;-142.70;nan
6224;BME280;3145;42.726;23.342;2023-05-03T01:56:09;72770.41;;;-142.70;nan
6224;BME280;3145;42.726;23.342;2023-05-03T01:58:37;72768.41;;;-142.70;nan
6224;BME280;3145;42.726;23.342;2023-05-03T02:01:04;72770.41;;;-142.70;nan
6224;BME280;3145;42.726;23.342;2023-05-03T02:03:32;72766.38;;;-142.70;nan
6224;BME280;3145;42.726;23.342;2023-05-03T02:05:59;72776.47;;;-142.70;nan
6224;BME280;3145;42.726;23.342;2023-05-03T02:08:25;72776.47;;;-142.70;nan
6224;BME280;3145;42.726;23.342;2023-05-03T02:10:52;72778.47;;;-142.70;nan
6224;BME280;3145;42.726;23.342;2023-05-03T02:13:19;72776.47;;;-142.70;nan
6224;BME280;3145;42.726;23.342;2023-05-03T02:15:47;72778.47;;;-142.70;nan
6224;BME280;3145;42.726;23.342;2023-05-03T02:18:13;72778.47;;;-142.70;nan
6224;BME280;3145;42.726;23.342;2023-05-03T02:20:43;72786.53;;;-142.70;nan
6224;BME280;3145;42.726;23.342;2023-05-03T02:23:10;72790.56;;;-142.70;nan
6224;BME280;3145;42.726;23.342;2023-05-03T02:25:37;72798.63;;;-142.70;nan
6224;BME280;3145;42.726;23.342;2023-05-03T02:28:04;72802.66;;;-142.70;nan
6224;BME280;3145;42.726;23.342;2023-05-03T02:30:31;72798.63;;;-142.70;nan
6224;BME280;3145;42.726;23.342;2023-05-03T02:32:59;72810.72;;;-142.70;nan
6224;BME280;3145;42.726;23.342;2023-05-03T02:35:26;72810.72;;;-142.70;nan
6224;BME280;3145;42.726;23.342;2023-05-03T02:37:52;72818.75;;;-142.70;nan
6224;BME280;3145;42.726;23.342;2023-05-03T02:40:19;72810.72;;;-142.70;nan
6224;BME280;3145;42.726;23.342;2023-05-03T02:42:46;72812.72;;;-142.70;nan
6224;BME280;3145;42.726;23.342;2023-05-03T02:45:12;72814.75;;;-142.70;nan
6224;BME280;3145;42.726;23.342;2023-05-03T02:47:39;72826.81;;;-142.70;nan
6224;BME280;3145;42.726;23.342;2023-05-03T02:50:08;72814.75;;;-142.70;nan
6224;BME280;3145;42.726;23.342;2023-05-03T02:52:34;72812.72;;;-142.70;nan
6224;BME280;3145;42.726;23.342;2023-05-03T02:55:01;72806.69;;;-142.70;nan
6224;BME280;3145;42.726;23.342;2023-05-03T02:57:28;72818.75;;;-142.70;nan
6224;BME280;3145;42.726;23.342;2023-05-03T02:59:55;72806.69;;;-142.70;nan
6224;BME280;3145;42.726;23.342;2023-05-03T03:02:21;72816.75;;;-142.70;nan
6224;BME280;3145;42.726;23.342;2023-05-03T03:04:48;72820.78;;;-142.70;nan
6224;BME280;3145;42.726;23.342;2023-05-03T03:07:16;72830.84;;;-142.70;nan
6224;BME280;3145;42.726;23.342;2023-05-03T03:09:43;72834.88;;;-142.70;nan
6224;BME280;3145;42.726;23.342;2023-05-03T03:12:10;72851.00;;;-142.70;nan
6224;BME280;3145;42.726;23.342;2023-05-03T03:14:37;72851.00;;;-142.70;nan
6224;BME280;3145;42.726;23.342;2023-05-03T03:17:06;72859.06;;;-142.70;nan
6224;BME280;3145;42.726;23.342;2023-05-03T03:19:34;72857.03;;;-142.70;nan
6224;BME280;3145;42.726;23.342;2023-05-03T03:22:00;72869.13;;;-142.70;nan
6224;BME280;3145;42.726;23.342;2023-05-03T03:24:28;72873.16;;;-142.70;nan
6224;BME280;3145;42.726;23.342;2023-05-03T03:26:55;72875.19;;;-142.70;nan
6224;BME280;3145;42.726;23.342;2023-05-03T03:29:22;72883.25;;;-142.70;nan
6224;BME280;3145;42.726;23.342;2023-05-03T03:31:49;72875.19;;;-142.70;nan
6224;BME280;3145;42.726;23.342;2023-05-03T03:34:16;72885.25;;;-142.70;nan
6224;BME280;3145;42.726;23.342;2023-05-03T03:36:43;72903.38;;;-142.70;nan
6224;BME280;3145;42.726;23.342;2023-05-03T03:39:10;72887.25;;;-142.70;nan
6224;BME280;3145;42.726;23.342;2023-05-03T03:41:38;72899.34;;;-142.70;nan
6224;BME280;3145;42.726;23.342;2023-05-03T03:44:05;72905.41;;;-142.70;nan
6224;BME280;3145;42.726;23.342;2023-05-03T03:46:33;72899.34;;;-142.70;nan
6224;BME280;3145;42.726;23.342;2023-05-03T03:48:59;72913.47;;;-142.70;nan
6224;BME280;3145;42.726;23.342;2023-05-03T03:51:26;72903.38;;;-142.70;nan
6224;BME280;3145;42.726;23.342;2023-05-03T03:53:53;72905.41;;;-142.70;nan
6224;BME280;3145;42.726;23.342;2023-05-03T03:56:20;72901.38;;;-142.70;nan
6224;BME280;3145;42.726;23.342;2023-05-03T03:58:49;72895.31;;;-142.70;nan
6224;BME280;3145;42.726;23.342;2023-05-03T04:01:16;72895.31;;;-142.70;nan
6224;BME280;3145;42.726;23.342;2023-05-03T04:03:44;72901.38;;;-142.70;nan
6224;BME280;3145;42.726;23.342;2023-05-03T04:06:11;72895.31;;;-142.70;nan
6224;BME280;3145;42.726;23.342;2023-05-03T04:08:38;72899.34;;;-142.70;nan
6224;BME280;3145;42.726;23.342;2023-05-03T04:11:09;72899.34;;;-142.70;nan
6224;BME280;3145;42.726;23.342;2023-05-03T04:13:36;72895.31;;;-142.70;nan
6224;BME280;3145;42.726;23.342;2023-05-03T04:16:05;72901.38;;;-142.70;nan
6224;BME280;3145;42.726;23.342;2023-05-03T04:18:31;72893.31;;;-142.70;nan
6224;BME280;3145;42.726;23.342;2023-05-03T04:20:58;72897.34;;;-142.70;nan
6224;BME280;3145;42.726;23.342;2023-05-03T04:23:25;72881.22;;;-142.70;nan
6224;BME280;3145;42.726;23.342;2023-05-03T04:25:52;72889.28;;;-142.70;nan
6224;BME280;3145;42.726;23.342;2023-05-03T04:28:18;72887.25;;;-142.70;nan
6224;BME280;3145;42.726;23.342;2023-05-03T04:30:46;72897.34;;;-142.70;nan
6224;BME280;3145;42.726;23.342;2023-05-03T04:33:15;72895.31;;;-142.70;nan
6224;BME280;3145;42.726;23.342;2023-05-03T04:35:41;72899.34;;;-142.70;nan
6224;BME280;3145;42.726;23.342;2023-05-03T04:38:08;72903.38;;;-142.70;nan
6224;BME280;3145;42.726;23.342;2023-05-03T04:40:35;72909.44;;;-142.70;nan
6224;BME280;3145;42.726;23.342;2023-05-03T04:43:02;72911.44;;;-142.70;nan
6224;BME280;3145;42.726;23.342;2023-05-03T04:45:29;72919.50;;;-142.70;nan
6224;BME280;3145;42.726;23.342;2023-05-03T04:47:56;72933.59;;;-142.70;nan
6224;BME280;3145;42.726;23.342;2023-05-03T04:50:24;72947.72;;;-142.70;nan
6224;BME280;3145;42.726;23.342;2023-05-03T04:52:51;72943.69;;;-142.70;nan
6224;BME280;3145;42.726;23.342;2023-05-03T04:55:18;72951.75;;;-142.70;nan
6224;BME280;3145;42.726;23.342;2023-05-03T04:57:45;72955.78;;;-142.70;nan
6224;BME280;3145;42.726;23.342;2023-05-03T05:00:12;72965.84;;;-142.70;nan
6224;BME280;3145;42.726;23.342;2023-05-03T05:02:40;72955.78;;;-142.70;nan
6224;BME280;3145;42.726;23.342;2023-05-03T05:05:08;72971.88;;;-142.70;nan
6224;BME280;3145;42.726;23.342;2023-05-03T05:07:36;72967.84;;;-142.70;nan
6224;BME280;3145;42.726;23.342;2023-05-03T05:10:03;72988.00;;;-142.70;nan
6224;BME280;3145;42.726;23.342;2023-05-03T05:12:30;72998.06;;;-142.70;nan
6224;BME280;3145;42.726;23.342;2023-05-03T05:14:57;73018.22;;;-142.70;nan
6224;BME280;3145;42.726;23.342;2023-05-03T05:17:24;73026.28;;;-142.70;nan
6224;BME280;3145;42.726;23.342;2023-05-03T05:19:51;73028.31;;;-142.70;nan
6224;BME280;3145;42.726;23.342;2023-05-03T05:22:18;73044.41;;;-142.70;nan
6224;BME280;3145;42.726;23.342;2023-05-03T05:24:46;73056.50;;;-142.70;nan
6224;BME280;3145;42.726;23.342;2023-05-03T05:27:13;73056.50;;;-142.70;nan
6224;BME280;3145;42.726;23.342;2023-05-03T05:29:40;73056.50;;;-142.70;nan
6224;BME280;3145;42.726;23.342;2023-05-03T05:32:06;73052.47;;;-142.70;nan
6224;BME280;3145;42.726;23.342;2023-05-03T05:34:33;73056.50;;;-142.70;nan
6224;BME280;3145;42.726;23.342;2023-05-03T05:37:00;73040.38;;;-142.70;nan
6224;BME280;3145;42.726;23.342;2023-05-03T05:39:28;73028.31;;;-142.70;nan
6224;BME280;3145;42.726;23.342;2023-05-03T05:41:56;73020.25;;;-142.70;nan
6224;BME280;3145;42.726;23.342;2023-05-03T05:44:23;73008.16;;;-142.70;nan
6224;BME280;3145;42.726;23.342;2023-05-03T05:46:49;72986.00;;;-142.70;nan
6224;BME280;3145;42.726;23.342;2023-05-03T05:49:16;72971.88;;;-142.70;nan
6224;BME280;3145;42.726;23.342;2023-05-03T05:51:43;72959.78;;;-142.70;nan
6224;BME280;3145;42.726;23.342;2023-05-03T05:54:10;72939.66;;;-142.70;nan
6224;BME280;3145;42.726;23.342;2023-05-03T05:56:37;72933.59;;;-142.70;nan
6224;BME280;3145;42.726;23.342;2023-05-03T05:59:05;72923.53;;;-142.70;nan
6224;BME280;3145;42.726;23.342;2023-05-03T06:01:32;72943.69;;;-142.70;nan
6224;BME280;3145;42.726;23.342;2023-05-03T06:03:58;72963.81;;;-142.70;nan
6224;BME280;3145;42.726;23.342;2023-05-03T06:06:25;72955.78;;;-142.70;nan
6224;BME280;3145;42.726;23.342;2023-05-03T06:08:52;72971.88;;;-142.70;nan
6224;BME280;3145;42.726;23.342;2023-05-03T06:11:19;72979.94;;;-142.70;nan
6224;BME280;3145;42.726;23.342;2023-05-03T06:13:46;72988.00;;;-142.70;nan
6224;BME280;3145;42.726;23.342;2023-05-03T06:16:14;72988.00;;;-142.70;nan
6224;BME280;3145;42.726;23.342;2023-05-03T06:18:41;72992.03;;;-142.70;nan
6224;BME280;3145;42.726;23.342;2023-05-03T06:21:08;72992.03;;;-142.70;nan
6224;BME280;3145;42.726;23.342;2023-05-03T06:23:35;72983.97;;;-142.70;nan
6224;BME280;3145;42.726;23.342;2023-05-03T06:26:04;72973.91;;;-142.70;nan
6224;BME280;3145;42.726;23.342;2023-05-03T06:28:30;72977.94;;;-142.70;nan
6224;BME280;3145;42.726;23.342;2023-05-03T06:30:57;72988.00;;;-142.70;nan
6224;BME280;3145;42.726;23.342;2023-05-03T06:33:25;72971.88;;;-142.70;nan
6224;BME280;3145;42.726;23.342;2023-05-03T06:35:52;72953.75;;;-142.70;nan
6224;BME280;3145;42.726;23.342;2023-05-03T06:38:19;72947.72;;;-142.70;nan
6224;BME280;3145;42.726;23.342;2023-05-03T06:40:46;72927.56;;;-142.70;nan
6224;BME280;3145;42.726;23.342;2023-05-03T06:43:13;72929.56;;;-142.70;nan
6224;BME280;3145;42.726;23.342;2023-05-03T06:45:41;72907.41;;;-142.70;nan
6224;BME280;3145;42.726;23.342;2023-05-03T06:48:08;72899.34;;;-142.70;nan
6224;BME280;3145;42.726;23.342;2023-05-03T06:50:36;72891.28;;;-142.70;nan
6224;BME280;3145;42.726;23.342;2023-05-03T06:53:03;72875.19;;;-142.70;nan
6224;BME280;3145;42.726;23.342;2023-05-03T06:55:30;72871.16;;;-142.70;nan
6224;BME280;3145;42.726;23.342;2023-05-03T06:57:58;72871.16;;;-142.70;nan
6224;BME280;3145;42.726;23.342;2023-05-03T07:00:26;72883.25;;;-142.70;nan
6224;BME280;3145;42.726;23.342;2023-05-03T07:02:52;72867.13;;;-142.70;nan
6224;BME280;3145;42.726;23.342;2023-05-03T07:05:19;72869.13;;;-142.70;nan
6224;BME280;3145;42.726;23.342;2023-05-03T07:07:48;72853.00;;;-142.70;nan
6224;BME280;3145;42.726;23.342;2023-05-03T07:10:14;72857.03;;;-142.70;nan
6224;BME280;3145;42.726;23.342;2023-05-03T07:12:41;72846.97;;;-142.70;nan
6224;BME280;3145;42.726;23.342;2023-05-03T07:15:09;72842.94;;;-142.70;nan
6224;BME280;3145;42.726;23.342;2023-05-03T07:17:35;72830.84;;;-142.70;nan
6224;BME280;3145;42.726;23.342;2023-05-03T07:20:02;72855.03;;;-142.70;nan
6224;BME280;3145;42.726;23.342;2023-05-03T07:22:29;72849.00;;;-142.70;nan
6224;BME280;3145;42.726;23.342;2023-05-03T07:24:57;72846.97;;;-142.70;nan
6224;BME280;3145;42.726;23.342;2023-05-03T07:27:24;72834.88;;;-142.70;nan
6224;BME280;3145;42.726;23.342;2023-05-03T07:29:51;72822.78;;;-142.70;nan
6224;BME280;3145;42.726;23.342;2023-05-03T07:32:18;72806.69;;;-142.70;nan
6224;BME280;3145;42.726;23.342;2023-05-03T07:34:46;72820.78;;;-142.70;nan
6224;BME280;3145;42.726;23.342;2023-05-03T07:37:12;72838.91;;;-142.70;nan
6224;BME280;3145;42.726;23.342;2023-05-03T07:39:40;72849.00;;;-142.70;nan
6224;BME280;3145;42.726;23.342;2023-05-03T07:42:08;72855.03;;;-142.70;nan
6224;BME280;3145;42.726;23.342;2023-05-03T07:44:35;72842.94;;;-142.70;nan
6224;BME280;3145;42.726;23.342;2023-05-03T07:47:01;72826.81;;;-142.70;nan
6224;BME280;3145;42.726;23.342;2023-05-03T07:49:28;72808.69;;;-142.70;nan
6224;BME280;3145;42.726;23.342;2023-05-03T07:51:55;72812.72;;;-142.70;nan
6224;BME280;3145;42.726;23.342;2023-05-03T07:54:24;72830.84;;;-142.70;nan
6224;BME280;3145;42.726;23.342;2023-05-03T07:56:50;72830.84;;;-142.70;nan
6224;BME280;3145;42.726;23.342;2023-05-03T07:59:18;72863.09;;;-142.70;nan
6224;BME280;3145;42.726;23.342;2023-05-03T08:01:45;72846.97;;;-142.70;nan
6224;BME280;3145;42.726;23.342;2023-05-03T08:04:12;72853.00;;;-142.70;nan
6224;BME280;3145;42.726;23.342;2023-05-03T08:06:39;72838.91;;;-142.70;nan
6224;BME280;3145;42.726;23.342;2023-05-03T08:09:07;72834.88;;;-142.70;nan
6224;BME280;3145;42.726;23.342;2023-05-03T08:11:35;72842.94;;;-142.70;nan
6224;BME280;3145;42.726;23.342;2023-05-03T08:14:02;72838.91;;;-142.70;nan
6224;BME280;3145;42.726;23.342;2023-05-03T08:16:30;72814.75;;;-142.70;nan
6224;BME280;3145;42.726;23.342;2023-05-03T08:18:57;72810.72;;;-142.70;nan
6224;BME280;3145;42.726;23.342;2023-05-03T08:21:24;72822.78;;;-142.70;nan
6224;BME280;3145;42.726;23.342;2023-05-03T08:23:52;72794.59;;;-142.70;nan
6224;BME280;3145;42.726;23.342;2023-05-03T08:26:19;72768.41;;;-142.70;nan
6224;BME280;3145;42.726;23.342;2023-05-03T08:28:46;72758.31;;;-142.70;nan
6224;BME280;3145;42.726;23.342;2023-05-03T08:31:13;72722.06;;;-142.70;nan
6224;BME280;3145;42.726;23.342;2023-05-03T08:33:41;72714.00;;;-142.70;nan
6224;BME280;3145;42.726;23.342;2023-05-03T08:36:08;72683.78;;;-142.70;nan
6224;BME280;3145;42.726;23.342;2023-05-03T08:38:35;72673.72;;;-142.70;nan
6224;BME280;3145;42.726;23.342;2023-05-03T08:41:13;72649.53;;;-142.70;nan
6224;BME280;3145;42.726;23.342;2023-05-03T08:43:43;72637.44;;;-142.70;nan
6224;BME280;3145;42.726;23.342;2023-05-03T08:46:11;72641.47;;;-142.70;nan
6224;BME280;3145;42.726;23.342;2023-05-03T08:48:38;72548.81;;;-142.70;nan
6224;BME280;3145;42.726;23.342;2023-05-03T08:51:07;72520.59;;;-142.70;nan
6224;BME280;3145;42.726;23.342;2023-05-03T08:53:35;72536.72;;;-142.70;nan
6224;BME280;3145;42.726;23.342;2023-05-03T08:56:05;72520.59;;;-142.70;nan
6224;BME280;3145;42.726;23.342;2023-05-03T08:58:33;72474.28;;;-142.70;nan
6224;BME280;3145;42.726;23.342;2023-05-03T09:01:03;72458.16;;;-142.70;nan
6224;BME280;3145;42.726;23.342;2023-05-03T09:03:30;72411.81;;;-142.70;nan
6224;BME280;3145;42.726;23.342;2023-05-03T09:05:57;72405.78;;;-142.70;nan
6224;BME280;3145;42.726;23.342;2023-05-03T09:08:28;72456.16;;;-142.70;nan
6224;BME280;3145;42.726;23.342;2023-05-03T09:10:55;72470.25;;;-142.70;nan
6224;BME280;3145;42.726;23.342;2023-05-03T09:13:28;72476.28;;;-142.70;nan
6224;BME280;3145;42.726;23.342;2023-05-03T09:15:56;72476.28;;;-142.70;nan
6224;BME280;3145;42.726;23.342;2023-05-03T09:18:23;72440.03;;;-142.70;nan
6224;BME280;3145;42.726;23.342;2023-05-03T09:20:51;72427.94;;;-142.70;nan
6224;BME280;3145;42.726;23.342;2023-05-03T09:23:29;72431.97;;;-142.70;nan
6224;BME280;3145;42.726;23.342;2023-05-03T09:25:57;72367.50;;;-142.70;nan
6224;BME280;3145;42.726;23.342;2023-05-03T09:28:24;72403.78;;;-142.70;nan
6224;BME280;3145;42.726;23.342;2023-05-03T09:31:03;72335.28;;;-142.70;nan
6224;BME280;3145;42.726;23.342;2023-05-03T09:33:30;72305.06;;;-142.70;nan
6224;BME280;3145;42.726;23.342;2023-05-03T09:35:58;72353.41;;;-142.70;nan
6224;BME280;3145;42.726;23.342;2023-05-03T09:38:26;72347.38;;;-142.70;nan
6224;BME280;3145;42.726;23.342;2023-05-03T09:40:54;72339.31;;;-142.70;nan
6224;BME280;3145;42.726;23.342;2023-05-03T09:43:21;72284.91;;;-142.70;nan
6224;BME280;3145;42.726;23.342;2023-05-03T09:45:48;72274.84;;;-142.70;nan
6224;BME280;3145;42.726;23.342;2023-05-03T09:48:15;72246.66;;;-142.70;nan
6224;BME280;3145;42.726;23.342;2023-05-03T09:50:45;72210.38;;;-142.70;nan
6224;BME280;3145;42.726;23.342;2023-05-03T09:53:13;72174.13;;;-142.70;nan
6224;BME280;3145;42.726;23.342;2023-05-03T09:55:42;72139.88;;;-142.70;nan
6224;BME280;3145;42.726;23.342;2023-05-03T09:58:11;72113.69;;;-142.70;nan
6224;BME280;3145;42.726;23.342;2023-05-03T10:00:40;72045.22;;;-142.70;nan
6224;BME280;3145;42.726;23.342;2023-05-03T10:03:09;72027.09;;;-142.70;nan
6224;BME280;3145;42.726;23.342;2023-05-03T10:05:42;71974.72;;;-142.70;nan
6224;BME280;3145;42.726;23.342;2023-05-03T10:08:12;71950.56;;;-142.70;nan
6224;BME280;3145;42.726;23.342;2023-05-03T10:10:43;71912.28;;;-142.70;nan
6224;BME280;3145;42.726;23.342;2023-05-03T10:13:13;71872.00;;;-142.70;nan
6224;BME280;3145;42.726;23.342;2023-05-03T10:15:41;72049.25;;;-142.70;nan
6224;BME280;3145;42.726;23.342;2023-05-03T10:18:12;72085.50;;;-142.70;nan
6224;BME280;3145;42.726;23.342;2023-05-03T10:20:44;72109.69;;;-142.70;nan
6224;BME280;3145;42.726;23.342;2023-05-03T10:23:12;72095.56;;;-142.70;nan
6224;BME280;3145;42.726;23.342;2023-05-03T10:26:11;72077.44;;;-142.70;nan
6224;BME280;3145;42.726;23.342;2023-05-03T10:28:40;71994.88;;;-142.70;nan
6224;BME280;3145;42.726;23.342;2023-05-03T10:34:19;71940.47;;;-142.70;nan
6224;BME280;3145;42.726;23.342;2023-05-03T10:36:46;71982.78;;;-142.70;nan
6224;BME280;3145;42.726;23.342;2023-05-03T10:39:15;72000.91;;;-142.70;nan
6224;BME280;3145;42.726;23.342;2023-05-03T10:41:43;71944.50;;;-142.70;nan
6224;BME280;3145;42.726;23.342;2023-05-03T10:44:26;71928.41;;;-142.70;nan
6224;BME280;3145;42.726;23.342;2023-05-03T10:46:54;71912.28;;;-142.70;nan
6224;BME280;3145;42.726;23.342;2023-05-03T10:49:22;71942.50;;;-142.70;nan
6224;BME280;3145;42.726;23.342;2023-05-03T10:51:50;71946.53;;;-142.70;nan
6224;BME280;3145;42.726;23.342;2023-05-03T10:54:17;71952.56;;;-142.70;nan
6224;BME280;3145;42.726;23.342;2023-05-03T10:56:54;72010.97;;;-142.70;nan
6224;BME280;3145;42.726;23.342;2023-05-03T10:59:22;72029.09;;;-142.70;nan
6224;BME280;3145;42.726;23.342;2023-05-03T11:01:52;72053.28;;;-142.70;nan
6224;BME280;3145;42.726;23.342;2023-05-03T11:04:32;72053.28;;;-142.70;nan
6224;BME280;3145;42.726;23.342;2023-05-03T11:07:01;72047.22;;;-142.70;nan
6224;BME280;3145;42.726;23.342;2023-05-03T11:09:30;72045.22;;;-142.70;nan
6224;BME280;3145;42.726;23.342;2023-05-03T11:11:57;72045.22;;;-142.70;nan
6224;BME280;3145;42.726;23.342;2023-05-03T11:14:24;72037.16;;;-142.70;nan
6224;BME280;3145;42.726;23.342;2023-05-03T11:16:52;72033.13;;;-142.70;nan
6224;BME280;3145;42.726;23.342;2023-05-03T11:19:21;72000.91;;;-142.70;nan
6224;BME280;3145;42.726;23.342;2023-05-03T11:21:49;71992.84;;;-142.70;nan
6224;BME280;3145;42.726;23.342;2023-05-03T11:24:16;72013.00;;;-142.70;nan
6224;BME280;3145;42.726;23.342;2023-05-03T11:26:43;72000.91;;;-142.70;nan
6224;BME280;3145;42.726;23.342;2023-05-03T11:29:10;72000.91;;;-142.70;nan
6224;BME280;3145;42.726;23.342;2023-05-03T11:31:38;72033.13;;;-142.70;nan
6224;BME280;3145;42.726;23.342;2023-05-03T11:34:09;72077.44;;;-142.70;nan
6224;BME280;3145;42.726;23.342;2023-05-03T11:36:36;72075.44;;;-142.70;nan
6224;BME280;3145;42.726;23.342;2023-05-03T11:39:03;72053.28;;;-142.70;nan
6224;BME280;3145;42.726;23.342;2023-05-03T11:41:31;72037.16;;;-142.70;nan
6224;BME280;3145;42.726;23.342;2023-05-03T11:43:58;72037.16;;;-142.70;nan
6224;BME280;3145;42.726;23.342;2023-05-03T11:46:27;72045.22;;;-142.70;nan
6224;BME280;3145;42.726;23.342;2023-05-03T11:48:54;72057.31;;;-142.70;nan
6224;BME280;3145;42.726;23.342;2023-05-03T11:51:24;72041.19;;;-142.70;nan
6224;BME280;3145;42.726;23.342;2023-05-03T11:53:51;72010.97;;;-142.70;nan
6224;BME280;3145;42.726;23.342;2023-05-03T11:56:18;72033.13;;;-142.70;nan
6224;BME280;3145;42.726;23.342;2023-05-03T11:58:52;72043.19;;;-142.70;nan
6224;BME280;3145;42.726;23.342;2023-05-03T12:01:22;72045.22;;;-142.70;nan
6224;BME280;3145;42.726;23.342;2023-05-03T12:03:52;72051.25;;;-142.70;nan
6224;BME280;3145;42.726;23.342;2023-05-03T12:06:19;72069.38;;;-142.70;nan
6224;BME280;3145;42.726;23.342;2023-05-03T12:08:47;72035.16;;;-142.70;nan
6224;BME280;3145;42.726;23.342;2023-05-03T12:11:14;72021.06;;;-142.70;nan
6224;BME280;3145;42.726;23.342;2023-05-03T12:13:41;72045.22;;;-142.70;nan
6224;BME280;3145;42.726;23.342;2023-05-03T12:16:08;72059.31;;;-142.70;nan
6224;BME280;3145;42.726;23.342;2023-05-03T12:18:46;72065.38;;;-142.70;nan
6224;BME280;3145;42.726;23.342;2023-05-03T12:21:15;72063.34;;;-142.70;nan
6224;BME280;3145;42.726;23.342;2023-05-03T12:23:42;72065.38;;;-142.70;nan
6224;BME280;3145;42.726;23.342;2023-05-03T12:26:10;72085.50;;;-142.70;nan
6224;BME280;3145;42.726;23.342;2023-05-03T12:28:36;72085.50;;;-142.70;nan
6224;BME280;3145;42.726;23.342;2023-05-03T12:31:03;72105.66;;;-142.70;nan
6224;BME280;3145;42.726;23.342;2023-05-03T12:33:30;72109.69;;;-142.70;nan
6224;BME280;3145;42.726;23.342;2023-05-03T12:35:57;72135.84;;;-142.70;nan
6224;BME280;3145;42.726;23.342;2023-05-03T12:38:24;72147.94;;;-142.70;nan
6224;BME280;3145;42.726;23.342;2023-05-03T12:40:51;72174.13;;;-142.70;nan
6224;BME280;3145;42.726;23.342;2023-05-03T12:43:20;72190.25;;;-142.70;nan
6224;BME280;3145;42.726;23.342;2023-05-03T12:45:46;72172.13;;;-142.70;nan
6224;BME280;3145;42.726;23.342;2023-05-03T12:48:13;72184.19;;;-142.70;nan
6224;BME280;3145;42.726;23.342;2023-05-03T12:50:40;72182.19;;;-142.70;nan
6224;BME280;3145;42.726;23.342;2023-05-03T12:53:07;72178.16;;;-142.70;nan
6224;BME280;3145;42.726;23.342;2023-05-03T12:55:33;72186.22;;;-142.70;nan
6224;BME280;3145;42.726;23.342;2023-05-03T12:58:00;72204.34;;;-142.70;nan
6224;BME280;3145;42.726;23.342;2023-05-03T13:00:30;72210.38;;;-142.70;nan
6224;BME280;3145;42.726;23.342;2023-05-03T13:02:57;72242.63;;;-142.70;nan
6224;BME280;3145;42.726;23.342;2023-05-03T13:05:23;72230.53;;;-142.70;nan
6224;BME280;3145;42.726;23.342;2023-05-03T13:07:51;72232.53;;;-142.70;nan
6224;BME280;3145;42.726;23.342;2023-05-03T13:10:18;72236.56;;;-142.70;nan
6224;BME280;3145;42.726;23.342;2023-05-03T13:12:44;72238.59;;;-142.70;nan
6224;BME280;3145;42.726;23.342;2023-05-03T13:15:11;72250.69;;;-142.70;nan
6224;BME280;3145;42.726;23.342;2023-05-03T13:17:39;72290.97;;;-142.70;nan